x

Gravelly Shoals Light Mi (gslm4) Weather Station

6:45pm - Sun 21st Dec 2014 All times are CST. -6 hours from GMT.

  • Wind
    11mph, 14mph gusts
  • Air Temp 31°f
  • Sea Pressure 1023.4mb
  • Gravelly Shoals Light Mi
  • Gravelly Shoals Light Mi

More Historic Weather Station data

Upgrade to MSW Pro to gain access to the past 30 days of data for over 8000 Wavebouys and Weather Stations around the globe.

Join Pro

Comparision Forecast

View Surf forecast
   
Sun 12/21 6:45pm 11 14 mph 1023.4mb 31f
6:40pm 10 13 mph 1023.4mb 31f
6:30pm 11 13 mph 1023.4mb 31f
6:20pm 11 14 mph 1023.4mb 32f
6:10pm 13 14 mph 1023.4mb 31f
6:00pm 11 14 mph 1023.4mb 31f
5:44pm 13 15 mph 1023.4mb 31f
5:30pm 11 13 mph 1023.7mb 31f
5:20pm 11 13 mph 1023.7mb 31f
5:10pm 13 14 mph 1023.7mb 31f
5:00pm 13 14 mph 1023.7mb 31f
4:44pm 13 16 mph 1023.7mb 32f
4:40pm 13 15 mph 1023.7mb 32f
4:30pm 13 15 mph 1023.7mb 31f
4:20pm 13 15 mph 1023.7mb 31f
4:10pm 14 16 mph 1023.7mb 31f
4:00pm 14 15 mph 1023.4mb 31f
3:44pm 14 16 mph 1023.4mb 31f
3:40pm 14 16 mph 1023.4mb 31f
3:30pm 14 15 mph 1023.4mb 31f
3:20pm 14 15 mph 1023.4mb 31f
3:10pm 15
mph
1023.4mb 31f
3:00pm 14 15 mph 1023.4mb 31f
2:43pm 13 15 mph 1023.4mb 31f
2:40pm 13 15 mph 1023.4mb 31f
2:30pm 14 15 mph 1023.4mb 31f
2:20pm 14
mph
1023.4mb 31f
2:10pm 13 14 mph 1023.4mb 31f
2:00pm 11 15 mph 1023.4mb 31f
1:43pm 14 18 mph 1023.4mb 31f
1:40pm 14 16 mph 1023.4mb 31f
1:30pm 15 17 mph 1023.7mb 31f
1:20pm 16 18 mph 1023.7mb 31f
1:10pm 15 17 mph 1023.7mb 31f
1:00pm 15 17 mph 1023.7mb 30f
12:42pm 15 18 mph 1023.7mb 30f
12:40pm 15 18 mph 1023.7mb 30f
12:30pm 16 17 mph 1024mb 30f
12:20pm 16 18 mph 1024mb 30f
12:10pm 16 18 mph 1024mb 30f
12:00pm 16 18 mph 1024mb 30f
11:42am 14 16 mph 1024.4mb 30f
11:40am 14 16 mph 1024.4mb 30f
11:30am 14 15 mph 1024.4mb 30f
11:20am 14 15 mph 1024.4mb 29f
11:10am 13 15 mph 1024.7mb 29f
11:00am 14 15 mph 1025.1mb 29f
10:42am 13 15 mph 1025.1mb 29f
10:40am 13 15 mph 1025.1mb 29f
10:30am 14 15 mph 1025.1mb 29f
10:20am 14 15 mph 1025.4mb 29f
10:10am 14 15 mph 1025.4mb 29f
10:00am 13 15 mph 1025.7mb 29f
9:41am 13 15 mph 1025.7mb 29f
9:40am 13 15 mph 1025.7mb 29f
9:30am 13 15 mph 1025.7mb 29f
9:20am 14 15 mph 1025.7mb 28f
9:10am 14 15 mph 1025.7mb 28f
9:00am 13 14 mph 1025.7mb 28f
8:41am 13 14 mph 1025.7mb 28f
8:40am 13 14 mph 1025.7mb 28f
8:30am 11 14 mph 1025.7mb 28f
8:20am 11 14 mph 1025.7mb 28f
8:10am 13 14 mph 1025.7mb 28f
8:00am 13 14 mph 1025.7mb 28f
7:40am 11 14 mph 1025.7mb 28f
7:30am 11 13 mph 1025.7mb 28f
7:20am 11 13 mph 1025.7mb 28f
7:10am 13 14 mph 1025.7mb 29f
7:00am 9 11 mph 1025.7mb 29f
6:40am 11 13 mph 1025.7mb 29f
6:30am 11 13 mph 1025.7mb 28f
6:20am 11 13 mph 1025.7mb 28f
6:10am 10 11 mph 1025.7mb 29f
6:00am 8 11 mph 1025.7mb 29f
5:40am 1 6 mph 1026.1mb 29f
5:30am 2 8 mph 1025.7mb 29f
5:20am 5 13 mph 1026.1mb 29f
5:10am 3 9 mph 1026.1mb 29f
5:00am 2 6 mph 1026.1mb 29f
4:40am 2 5 mph 1025.7mb 29f
4:30am 2 6 mph 1025.7mb 29f
4:21am 1 10 mph 1025.7mb 28f
4:20am 1 9 mph 1025.7mb 28f
4:10am 6 9 mph 1025.4mb 28f
4:00am 8 10 mph 1025.7mb 28f
3:40am 6 8 mph 1025.4mb 28f
3:30am 2 6 mph 1025.4mb 28f
3:21am 5 7 mph 1025.4mb 28f
3:20am 5 7 mph 1025.4mb 28f
3:10am 2 5 mph 1025.7mb 28f
3:00am  -  3 mph 1025.7mb 28f
2:40am  -  2 mph 1025.7mb 28f
2:30am  -  7 mph 1025.7mb 28f
2:20am 3 10 mph 1025.7mb 28f
2:10am 6 8 mph 1026.1mb 28f
2:00am 6 10 mph 1026.1mb 28f
1:40am 6 9 mph 1026.1mb 28f
1:30am 7 9 mph 1025.7mb 28f
1:20am 6 8 mph 1025.7mb 28f
1:10am 2 8 mph 1025.7mb 28f
1:00am  -  3 mph 1025.7mb 28f
12:40am  -  5 mph 1025.4mb 28f
12:30am  -  5 mph 1025.4mb 28f
12:20am 2 6 mph 1025.4mb 28f
12:19am 3 7 mph 1025.4mb 28f
12:10am  -  5 mph 1025.4mb 28f
12:00am  -  3 mph 1025.4mb 28f
Sat 12/20 11:40pm  -  6 mph 1025.4mb 28f
11:30pm  -  7 mph 1025.4mb 28f
11:20pm  -  5 mph 1025.7mb 28f
11:19pm 1 10 mph 1025.7mb 28f
11:10pm 2 7 mph 1025.7mb 28f
11:00pm 1 7 mph 1025.7mb 28f
10:40pm 5 8 mph 1025.7mb 28f
10:30pm 6 10 mph 1025.7mb 28f
10:20pm 7 11 mph 1025.7mb 28f
10:19pm 7 11 mph 1025.7mb 28f
10:10pm 8 11 mph 1025.7mb 28f
10:00pm 7 11 mph 1025.7mb 28f
9:40pm 7 10 mph 1025.7mb 28f
9:30pm 9 10 mph 1025.7mb 28f
9:20pm 8 9 mph 1025.7mb 28f
9:18pm 7 11 mph 1025.7mb 28f
9:10pm 9 11 mph 1025.7mb 28f
9:00pm 6 9 mph 1025.7mb 28f
8:40pm 1 7 mph 1025.7mb 28f
8:30pm 2 6 mph 1025.7mb 28f
8:20pm 2 6 mph 1025.7mb 28f
8:18pm 5 7 mph 1025.7mb 28f
8:10pm 2 7 mph 1025.7mb 28f
8:00pm 3 6 mph 1025.7mb 28f
7:40pm 2 6 mph 1025.7mb 28f
7:30pm  -  3 mph 1025.7mb 28f
7:20pm  -  5 mph 1025.7mb 28f
7:17pm  -  6 mph 1026.1mb 28f
7:10pm 1 5 mph 1026.1mb 28f
7:00pm  -  3 mph 1026.1mb 28f
6:50pm 2 5 mph 1026.1mb 28f
6:40pm 1 5 mph 1026.1mb 28f
6:30pm 1 6 mph 1026.1mb 28f
6:20pm 2 6 mph 1026.1mb 28f
6:17pm 1 6 mph 1026.1mb 28f
6:10pm 2 6 mph 1026.1mb 28f
6:00pm  -  3 mph 1026.1mb 28f
5:50pm 2 5 mph 1026.1mb 28f
5:30pm  -  6 mph 1026.1mb 28f
5:20pm 2 5 mph 1026.1mb 27f
5:16pm 2 6 mph 1025.7mb 27f
5:10pm  -  5 mph 1025.7mb 27f
5:00pm  -  2 mph 1025.7mb 27f
4:50pm  -  6 mph 1025.7mb 28f
4:40pm 3 6 mph 1025.7mb 27f
4:30pm 3 6 mph 1025.7mb 27f
4:20pm 2 7 mph 1025.7mb 27f
4:16pm 5 9 mph 1025.7mb 27f
4:10pm 6 7 mph 1025.7mb 27f
4:00pm 2 8 mph 1025.7mb 27f
3:50pm 2 7 mph 1025.7mb 27f
3:40pm 3 9 mph 1025.7mb 27f
3:30pm 6 8 mph 1025.7mb 27f
3:20pm 6 9 mph 1025.4mb 27f
3:16pm  -  9 mph 1025.4mb 27f
3:10pm 5 9 mph 1025.4mb 27f
3:00pm 5 7 mph 1025.4mb 27f
2:50pm 3 6 mph 1025.4mb 27f
2:40pm 3 8 mph 1025.4mb 27f
2:30pm 1 6 mph 1025.4mb 27f
2:20pm  -  6 mph 1025.4mb 27f
2:15pm 1 7 mph 1025.4mb 27f
2:10pm 1 5 mph 1025.4mb 27f
2:00pm 1 7 mph 1025.4mb 27f
1:50pm 3 6 mph 1025.4mb 27f
1:40pm  -  3 mph 1025.1mb 27f
1:30pm 1 5 mph 1025.1mb 27f
1:20pm  -  5 mph 1025.4mb 27f
1:15pm 2 7 mph 1025.4mb 27f
1:10pm  -  3 mph 1025.4mb 27f
1:00pm  -  7 mph 1025.4mb 27f
12:50pm  -  6 mph 1025.4mb 27f
12:40pm 1 6 mph 1025.4mb 26f
12:30pm  -  6 mph 1025.7mb 26f
12:20pm 3 7 mph 1025.7mb 26f
12:14pm  -  7 mph 1025.7mb 27f
12:10pm 1 6 mph 1025.7mb 27f
12:00pm 2 6 mph 1025.7mb 26f
11:50am  -  6 mph 1026.1mb 27f
11:40am 3 6 mph 1026.1mb 26f
11:30am 3 7 mph 1026.1mb 26f
11:20am 3 7 mph 1026.1mb 26f
11:14am 5 7 mph 1026.1mb 26f
11:10am 3 6 mph 1026.1mb 26f
11:00am 3 6 mph 1026.1mb 26f
10:50am 5 6 mph 1026.4mb 26f
10:40am 3 7 mph 1026.4mb 26f
10:30am 5 6 mph 1026.4mb 26f
10:20am 3 5 mph 1026.4mb 27f
10:14am 3 7 mph 1026.8mb 27f
10:10am 3 5 mph 1026.8mb 27f
10:00am 2 6 mph 1026.8mb 28f
9:50am 3 5 mph 1026.8mb 27f
9:40am  -  3 mph 1026.8mb 28f
9:30am 2 6 mph 1027.1mb 28f
9:20am 3 7 mph 1027.1mb 27f
9:13am 2 6 mph 1027.1mb 27f
9:10am 2 6 mph 1027.1mb 27f
9:00am  -  5 mph 1026.8mb 27f
8:50am 2 6 mph 1027.1mb 27f
8:40am 2 6 mph 1027.1mb 27f
8:30am  -  6 mph 1027.1mb 26f
8:20am 1 5 mph 1026.8mb 26f
8:13am 1 6 mph 1026.8mb 26f
8:10am  -  2 mph 1026.8mb 26f
8:00am  -  5 mph 1026.8mb 26f
7:50am  -  6 mph 1026.8mb 27f
7:40am 1 5 mph 1026.8mb 27f
7:30am 1 5 mph 1026.8mb 26f
7:20am  -  5 mph 1026.8mb 26f
7:12am 2 6 mph 1026.8mb 26f
7:10am 2 5 mph 1026.8mb 26f
7:00am  -  6 mph 1026.8mb 26f
6:50am  -  5 mph 1026.8mb 26f
6:40am  -  5 mph 1026.8mb 26f
6:30am  -  6 mph 1026.4mb 26f
6:20am  -  6 mph 1026.4mb 26f
6:12am 1 9 mph 1026.4mb 26f
6:10am 1 5 mph 1026.4mb 26f
6:00am  -  3 mph 1026.4mb 26f
5:50am  -  6 mph 1026.4mb 26f
5:40am  -  7 mph 1026.4mb 26f
5:30am 5 9 mph 1026.4mb 26f
5:20am 5 9 mph 1026.4mb 26f
5:12am 6 13 mph 1026.4mb 26f
5:10am 6 10 mph 1026.4mb 26f
5:00am 6 10 mph 1026.4mb 26f
4:50am 8 11 mph 1026.4mb 26f
4:40am 7 11 mph 1026.4mb 26f
4:30am 8 13 mph 1026.4mb 26f
4:20am 9 11 mph 1026.4mb 26f
4:11am 7 11 mph 1026.1mb 26f
4:10am 7 11 mph 1026.1mb 26f
4:00am 10 11 mph 1026.1mb 26f
3:50am 9 10 mph 1026.1mb 26f
3:40am 9 11 mph 1026.1mb 26f
3:30am 9 10 mph 1026.1mb 26f
3:20am 9 10 mph 1025.7mb 26f
3:11am 9 16 mph 1025.7mb 26f
3:10am 9 11 mph 1025.7mb 26f
3:00am 10 11 mph 1025.7mb 26f
2:50am 11 13 mph 1026.1mb 26f
2:40am 11 14 mph 1026.1mb 26f
2:30am 13 16 mph 1026.1mb 27f
2:20am 13 15 mph 1026.1mb 27f
2:10am 11 14 mph 1026.1mb 27f
2:00am 11 13 mph 1026.1mb 27f
1:50am 10 14 mph 1026.1mb 27f
1:40am 10 13 mph 1026.1mb 27f
1:30am 10 13 mph 1026.1mb 27f
1:20am 10 13 mph 1026.1mb 27f
1:10am 9 13 mph 1026.1mb 27f
1:00am 9 10 mph 1025.7mb 27f
12:50am 8 10 mph 1025.7mb 27f
12:40am 9 11 mph 1025.7mb 27f
12:30am 10
mph
1025.4mb 27f
12:20am 8 11 mph 1025.4mb 27f
12:10am 9 10 mph 1025.4mb 27f
12:00am 9
mph
1025.4mb 27f
Fri 12/19 11:50pm 8 9 mph 1025.4mb 27f
11:40pm 8 9 mph 1025.4mb 27f
11:30pm 7 10 mph 1025.4mb 27f
11:20pm 8 9 mph 1025.4mb 27f
11:10pm 5 7 mph 1025.4mb 28f
11:09pm 5 7 mph 1025.4mb 28f
11:00pm 3 5 mph 1025.4mb 28f
10:50pm 3 5 mph 1025.1mb 28f
10:40pm 2 5 mph 1025.1mb 28f
10:30pm 2 5 mph 1025.4mb 28f
10:20pm 3 5 mph 1025.4mb 28f
10:10pm 2 3 mph 1025.7mb 28f
10:09pm 1 6 mph 1025.7mb 28f
10:00pm 2 5 mph 1025.7mb 28f
9:50pm 3 6 mph 1025.7mb 28f
9:40pm  -  3 mph 1026.1mb 28f
9:30pm  -  3 mph 1026.1mb 28f
9:20pm  -  6 mph 1026.4mb 28f
9:10pm  -  6 mph 1026.4mb 28f
9:08pm  -  9 mph 1026.4mb 28f
9:00pm  -  8 mph 1026.4mb 28f
8:50pm 6 9 mph 1026.4mb 28f
8:40pm 5 8 mph 1026.8mb 28f
8:30pm  -  5 mph 1026.8mb 28f
8:20pm 5 7 mph 1026.4mb 28f
8:10pm  -  6 mph 1026.4mb 28f
8:08pm 2 7 mph 1026.4mb 28f
8:00pm  -  5 mph 1026.8mb 28f
7:50pm 2 3 mph 1026.8mb 28f
7:40pm  -  3 mph 1026.8mb 28f
7:30pm  -  6 mph 1026.8mb 28f
7:20pm  -  7 mph 1026.8mb 28f
7:10pm 5 9 mph 1027.1mb 28f
7:08pm 7 9 mph 1027.1mb 28f
7:00pm  -  5 mph 1026.8mb 28f
6:50pm 2 5 mph 1026.8mb 28f
6:40pm  -  6 mph 1026.8mb 28f
6:30pm  -  5 mph 1026.8mb 28f
6:20pm  -  6 mph 1026.8mb 28f
6:10pm 2 8 mph 1026.4mb 28f
6:07pm 3 8 mph 1026.4mb 27f
6:00pm 3 6 mph 1026.4mb 27f
5:50pm 5 7 mph 1026.4mb 27f
5:30pm 6 7 mph 1026.4mb 28f
5:20pm 5 8 mph 1026.1mb 27f
5:10pm 5 6 mph 1026.1mb 27f
5:07pm 3 6 mph 1026.1mb 27f
5:00pm 2 6 mph 1025.7mb 27f
4:50pm 3 6 mph 1025.7mb 27f
4:40pm 3 6 mph 1026.1mb 27f
4:30pm 3 6 mph 1025.7mb 27f
4:20pm 5 6 mph 1025.7mb 27f
4:10pm 3 6 mph 1025.7mb 27f
4:06pm 2 7 mph 1025.7mb 27f
4:00pm  -  6 mph 1025.4mb 27f
3:50pm  -  5 mph 1025.4mb 28f
3:40pm  -  3 mph 1025.4mb 28f
3:30pm 2 5 mph 1025.1mb 28f
3:20pm 5 7 mph 1025.1mb 28f
3:10pm 2 6 mph 1025.1mb 29f
3:06pm  -  8 mph 1025.1mb 29f
3:00pm  -  2 mph 1025.1mb 30f
2:50pm  -  3 mph 1025.1mb 30f
2:40pm 3 6 mph 1025.1mb 30f
2:30pm 5 8 mph 1025.1mb 29f
2:20pm 5 6 mph 1025.1mb 28f
2:10pm  -  2 mph 1025.1mb 29f
2:06pm  -  2 mph 1025.1mb 28f
2:00pm  -  1 mph 1025.1mb 28f
1:50pm  -  mph 1025.1mb 28f
1:40pm  -  mph 1025.1mb 27f
1:30pm  -  2 mph 1025.1mb 27f
1:20pm  -  1 mph 1025.1mb 28f
1:10pm  -  1 mph 1025.1mb 27f
1:05pm  -  6 mph 1025.1mb 27f
1:00pm  -  1 mph 1025.1mb 27f
12:50pm  -  mph 1025.1mb 28f
12:40pm  -  1 mph 1025.1mb 27f
12:30pm  -  1 mph 1025.4mb 27f
12:20pm 2 5 mph 1025.1mb 26f
12:10pm 5 6 mph 1025.1mb 26f
12:05pm 2 7 mph 1025.1mb 26f
12:00pm 3 6 mph 1025.1mb 26f
11:50am 5 7 mph 1025.1mb 26f
11:40am 5 7 mph 1025.1mb 26f
11:30am 5 7 mph 1025.1mb 26f
11:20am 5 7 mph 1025.1mb 26f
11:10am 5 8 mph 1025.1mb 26f
11:04am 6 8 mph 1025.1mb 26f
11:00am 6 8 mph 1025.4mb 26f
10:50am 5 8 mph 1025.4mb 25f
10:40am 6 7 mph 1025.7mb 25f
10:30am 6 7 mph 1026.1mb 25f
10:20am 7 8 mph 1026.1mb 25f
10:10am 7 8 mph 1026.1mb 24f
10:04am 7 10 mph 1026.1mb 24f
10:00am 8 9 mph 1026.1mb 24f
9:50am 8 10 mph 1026.1mb 24f
9:40am 8 10 mph 1026.4mb 24f
9:30am 9 10 mph 1026.1mb 23f
9:20am 8 10 mph 1026.1mb 23f
9:10am 9 10 mph 1026.1mb 23f
9:04am 8 13 mph 1026.1mb 23f
9:00am 9 11 mph 1026.1mb 23f
8:50am 10 11 mph 1025.7mb 22f
8:40am 10 11 mph 1025.4mb 22f
8:30am 10 13 mph 1025.7mb 22f
8:20am 11 13 mph 1025.4mb 21f
8:10am 11 13 mph 1025.7mb 21f
8:03am 10 13 mph 1025.4mb 21f
8:00am 10 13 mph 1025.4mb 21f
7:50am 10 11 mph 1025.4mb 21f
7:40am 10 13 mph 1025.4mb 21f
7:30am 11 13 mph 1025.4mb 21f
7:20am 10 13 mph 1025.4mb 21f
7:10am 11 13 mph 1025.1mb 21f
7:03am 11 14 mph 1025.1mb 21f
7:00am 11 14 mph 1025.1mb 21f
6:50am 11 13 mph 1025.1mb 20f
6:40am 11 13 mph 1025.1mb 20f
6:30am 11 13 mph 1025.1mb 20f
6:20am 11 14 mph 1025.1mb 20f
6:10am 13 15 mph 1025.1mb 20f
6:02am 14 15 mph 1024.7mb 20f
6:00am 13 14 mph 1024.7mb 20f
5:50am 11 14 mph 1024.7mb 20f
5:40am 13 14 mph 1024.4mb 21f
5:30am 11 15 mph 1024.4mb 21f
5:20am 13 14 mph 1024.4mb 20f
5:10am 13 14 mph 1024mb 20f
5:02am 11 15 mph 1024.4mb 20f
5:00am 11 14 mph 1024.4mb 20f
4:50am 13 14 mph 1024mb 20f
4:40am 13 14 mph 1024mb 20f
4:30am 13 14 mph 1024mb 20f
4:20am 13 15 mph 1023.7mb 21f
4:10am 13 15 mph 1023.7mb 21f
4:02am 13 15 mph 1023.7mb 21f
4:00am 13 14 mph 1023.7mb 21f
3:50am 13 14 mph 1023.7mb 21f
3:40am 11 14 mph 1023.7mb 21f
3:30am 11 13 mph 1023.7mb 21f
3:20am 11 14 mph 1023.7mb 21f
3:10am 13 15 mph 1023.7mb 21f
3:01am 13 17 mph 1023.7mb 21f
3:00am 13 15 mph 1023.7mb 21f
2:50am 13 15 mph 1023.7mb 21f
2:40am 14 15 mph 1023.7mb 21f
2:30am 14 16 mph 1023.7mb 21f
2:20am 13 16 mph 1023.7mb 21f
2:10am 15 17 mph 1023.7mb 21f
2:01am 15 20 mph 1023.7mb 21f
2:00am 15 17 mph 1023.7mb 21f
1:50am 15 17 mph 1023.7mb 21f
1:40am 15 17 mph 1023.7mb 21f
1:30am 16 18 mph 1023.7mb 22f
1:20am 17 20 mph 1023.7mb 22f
1:10am 17 20 mph 1023.4mb 22f
1:00am 17 20 mph 1023.7mb 22f
12:50am 18 21 mph 1023.7mb 22f
12:40am 18 21 mph 1023.4mb 22f
12:30am 18 21 mph 1023.4mb 22f
12:20am 20 22 mph 1023.4mb 22f
12:10am 17 20 mph 1023.4mb 22f
12:00am 18 21 mph 1023.7mb 23f
Thu 12/18 11:50pm 18 20 mph 1023.4mb 23f
11:40pm 18 21 mph 1023.7mb 23f
11:30pm 18 21 mph 1023.7mb 23f
11:20pm 17 20 mph 1023.7mb 23f
11:10pm 17 18 mph 1023.7mb 24f
11:00pm 15 20 mph 1023.7mb 24f
10:50pm 16 17 mph 1023.7mb 24f
10:40pm 15 17 mph 1023.7mb 24f
10:30pm 15 17 mph 1023.4mb 24f
10:20pm 14 16 mph 1023.4mb 24f
10:10pm 14 16 mph 1023.4mb 24f
10:00pm 13 15 mph 1023.4mb 24f
9:50pm 13 15 mph 1023.4mb 24f
9:40pm 14 16 mph 1023.4mb 24f
9:30pm 14 16 mph 1023mb 24f
9:20pm 13 16 mph 1023.4mb 24f
9:10pm 14 16 mph 1023mb 24f
9:00pm 13 15 mph 1023mb 24f
8:50pm 14 16 mph 1023mb 24f
8:40pm 14 15 mph 1023mb 24f
8:30pm 13 16 mph 1023mb 24f
8:20pm 14 16 mph 1023mb 24f
8:19pm 14 17 mph 1023mb 24f
8:10pm 16 17 mph 1023mb 24f
8:00pm 11 15 mph 1023.4mb 24f
7:50pm 14 15 mph 1023.4mb 24f
7:40pm 13 15 mph 1023.4mb 24f
7:30pm 11 14 mph 1023.4mb 25f
7:20pm 11 15 mph 1023.4mb 25f
7:19pm 11 15 mph 1023.4mb 25f
7:10pm 13 14 mph 1023.4mb 24f
7:00pm 10 13 mph 1023.4mb 25f
6:50pm 11 13 mph 1023.4mb 25f
6:40pm 10 13 mph 1023.4mb 25f
6:30pm 6 15 mph 1023.4mb 25f
6:20pm 10 13 mph 1023.4mb 25f
6:18pm 9 17 mph 1023.4mb 24f
6:10pm 8 15 mph 1023.4mb 24f
6:00pm 13 17 mph 1023.4mb 24f
5:50pm 7 16 mph 1023.4mb 24f
5:30pm 10 14 mph 1023.4mb 25f
5:20pm 10 13 mph 1023.4mb 25f
5:18pm 10 17 mph 1023.4mb 25f
5:10pm 11 15 mph 1023mb 25f
5:00pm 7 10 mph 1023.4mb 25f
4:50pm 7 11 mph 1023.4mb 25f
4:40pm 10 15 mph 1023.4mb 25f
4:30pm 10 17 mph 1023mb 25f
4:20pm 9 11 mph 1023mb 25f
4:17pm 8 14 mph 1023mb 25f
4:10pm 8 13 mph 1023mb 25f
4:00pm 11 14 mph 1023mb 25f
3:50pm 9 11 mph 1023mb 26f
3:40pm 6 11 mph 1023mb 26f
3:30pm 10 13 mph 1022.7mb 26f
3:20pm 11 13 mph 1022.4mb 26f
3:17pm 9 14 mph 1022.4mb 26f
3:10pm 9 13 mph 1022.4mb 26f
3:00pm 8 13 mph 1022.4mb 25f
2:50pm 13 14 mph 1022.4mb 25f
2:40pm 8 14 mph 1022.4mb 25f
2:30pm 9 11 mph 1022mb 25f
2:20pm 8 15 mph 1022mb 25f
2:17pm 11 16 mph 1022mb 25f
2:10pm 10 16 mph 1022mb 25f
2:00pm 10 13 mph 1022mb 25f
1:50pm 9 10 mph 1022mb 25f
1:40pm 9 11 mph 1022mb 25f
1:30pm 9 14 mph 1022mb 25f
1:20pm 8 10 mph 1022mb 25f
1:16pm 9 13 mph 1022mb 25f
1:10pm 8 10 mph 1022mb 25f
1:00pm 8 11 mph 1022.4mb 25f
12:50pm 11 13 mph 1022.4mb 25f
12:40pm 7 8 mph 1022.4mb 24f
12:30pm 6 9 mph 1022.4mb 24f
12:20pm 5 7 mph 1022.4mb 24f
12:16pm 6 10 mph 1022.7mb 24f
12:10pm 6 10 mph 1022.4mb 24f
12:00pm 3 9 mph 1022.7mb 24f
11:50am 6 8 mph 1023mb 24f
11:40am 7 10 mph 1023mb 24f
11:30am 7 10 mph 1023.4mb 24f
11:20am 9 10 mph 1023.4mb 24f
11:15am 8 13 mph 1023.4mb 24f
11:10am 7 9 mph 1023.4mb 24f
11:00am 7 13 mph 1023.4mb 24f
10:50am 9 11 mph 1023.4mb 24f
10:40am 9 13 mph 1023.7mb 24f
10:30am 7 10 mph 1023.7mb 24f
10:20am 8 10 mph 1023.7mb 24f
10:15am 8 13 mph 1023.7mb 24f
10:10am 5 11 mph 1023.7mb 24f
10:00am 7 10 mph 1023.7mb 24f
9:50am 8 13 mph 1023.7mb 24f
9:40am 9 13 mph 1023.7mb 25f
9:30am 10 11 mph 1023.4mb 25f
9:20am 9 13 mph 1023.4mb 25f
9:15am 9 11 mph 1023.4mb 25f
9:10am 8 10 mph 1023.4mb 25f
9:00am 8
mph
1023.4mb 25f
8:50am 7 11 mph 1023mb 25f
8:40am 9 10 mph 1023mb 25f
8:30am 6 11 mph 1023mb 25f
8:20am 10 11 mph 1023mb 25f
8:14am 7 13 mph 1023mb 25f
8:10am 7 10 mph 1023mb 25f
8:00am 10 13 mph 1023mb 25f
7:50am 9 11 mph 1023mb 25f
7:40am 8 11 mph 1023mb 25f
7:30am 6 11 mph 1023mb 26f
7:20am 8 11 mph 1023mb 26f
7:14am 10 18 mph 1023mb 26f
7:10am 9 13 mph 1023mb 26f
7:00am 10 14 mph 1023mb 26f
6:50am 10 16 mph 1022.7mb 26f
6:40am 14 16 mph 1022.7mb 26f
6:30am 14 18 mph 1022.4mb 26f
6:20am 15 17 mph 1022.4mb 26f
6:13am 14 21 mph 1022.4mb 26f
6:10am 15 21 mph 1022mb 26f
6:00am 17 21 mph 1022mb 26f
5:50am 16 18 mph 1022mb 26f
5:40am 16 20 mph 1022mb 26f
5:30am 16 20 mph 1022mb 26f
5:20am 17 18 mph 1021.7mb 27f
5:13am 15 20 mph 1021.7mb 27f
5:10am 15 20 mph 1021.7mb 27f
5:00am 15 18 mph 1021.7mb 27f
4:50am 15 17 mph 1021.7mb 27f
4:40am 14 16 mph 1021.7mb 27f
4:30am 14 17 mph 1021.7mb 27f
4:20am 14 16 mph 1022mb 27f
4:13am 11 15 mph 1022mb 27f
4:10am 11 14 mph 1022mb 27f
4:00am 10 13 mph 1022mb 27f
3:50am 11 13 mph 1022mb 27f
3:40am 11 14 mph 1022mb 27f
3:30am 10 15 mph 1022mb 27f
3:20am 11 14 mph 1022mb 27f
3:12am 11 16 mph 1021.7mb 27f
3:10am 10 14 mph 1021.7mb 27f
3:00am 10 14 mph 1021.7mb 27f
2:50am 11 13 mph 1021.7mb 27f
2:40am 11 15 mph 1022mb 27f
2:30am 11 16 mph 1022mb 28f
2:20am 14 16 mph 1021.7mb 28f
2:12am 14 20 mph 1022mb 28f
2:10am 14 17 mph 1021.7mb 28f
2:00am 14 20 mph 1021.7mb 27f